createdAt,value
2019-06-07T00:01:09.565Z,-22930.53
2019-06-07T00:03:36.105Z,-22931.71
2019-06-07T00:06:02.633Z,-22933.65
2019-06-07T00:08:29.640Z,-22932.61
2019-06-07T00:10:56.235Z,-22931.27
2019-06-07T00:13:22.772Z,-22930.38
2019-06-07T00:15:49.320Z,-22929.49
2019-06-07T00:18:22.384Z,-22927.11
2019-06-07T00:20:44.261Z,-22927.86
2019-06-07T00:23:12.278Z,-22926.67
2019-06-07T00:25:39.245Z,-22927.27
2019-06-07T00:28:05.821Z,-22926.38
2019-06-07T00:30:50.178Z,-22925.93
2019-06-07T00:33:00.828Z,-22926.22
2019-06-07T00:35:27.341Z,-22925.78
2019-06-07T00:37:53.876Z,-22925.48
2019-06-07T00:40:30.890Z,-22925.48
2019-06-07T00:42:48.942Z,-22926.67
2019-06-07T00:45:19.982Z,-22927.41
2019-06-07T00:47:44.668Z,-22925.93
2019-06-07T00:50:13.737Z,-22925.93
2019-06-07T00:53:13.859Z,-22926.07
2019-06-07T00:55:09.738Z,-22926.22
2019-06-07T00:57:36.893Z,-22926.22
2019-06-07T01:00:07.037Z,-22925.33
2019-06-07T01:02:33.577Z,-22924.89
2019-06-07T01:05:00.138Z,-22925.93
2019-06-07T01:07:26.759Z,-22927.11
2019-06-07T01:09:53.299Z,-22926.22
2019-06-07T01:12:22.113Z,-22927.11
2019-06-07T01:14:48.297Z,-22927.27
2019-06-07T01:17:33.120Z,-22926.38
2019-06-07T01:19:50.989Z,-22924.89
2019-06-07T01:22:18.409Z,-22924.74
2019-06-07T01:24:45.959Z,-22924.59
2019-06-07T01:27:12.489Z,-22925.93
2019-06-07T01:29:39.028Z,-22928.16
2019-06-07T01:32:06.584Z,-22930.09
2019-06-07T01:34:33.120Z,-22930.82
2019-06-07T01:36:59.641Z,-22930.82
2019-06-07T01:39:29.842Z,-22931.12
2019-06-07T01:41:54.727Z,-22932.16
2019-06-07T01:44:25.242Z,-22932.02
2019-06-07T01:46:49.720Z,-22931.27
2019-06-07T01:49:17.121Z,-22930.23
2019-06-07T01:51:43.788Z,-22930.68
2019-06-07T01:54:49.128Z,-22931.27
2019-06-07T01:56:38.781Z,-22931.42
2019-06-07T01:59:05.314Z,-22931.57
2019-06-07T02:01:35.215Z,-22933.65
2019-06-07T02:04:00.323Z,-22934.54
2019-06-07T02:06:31.377Z,-22935.43
2019-06-07T02:08:55.311Z,-22935.87
2019-06-07T02:11:23.489Z,-22936.32
2019-06-07T02:13:50.285Z,-22937.06
2019-06-07T02:16:16.824Z,-22936.32
2019-06-07T02:19:00.730Z,-22937.21
2019-06-07T02:21:11.801Z,-22937.65
2019-06-07T02:23:38.349Z,-22938.10
2019-06-07T02:26:04.888Z,-22938.84
2019-06-07T02:28:44.191Z,-22937.80
2019-06-07T02:31:00.808Z,-22938.25
2019-06-07T02:33:31.120Z,-22940.18
2019-06-07T02:35:55.942Z,-22940.18
2019-06-07T02:38:27.063Z,-22938.25
2019-06-07T02:40:50.948Z,-22938.39
2019-06-07T02:43:17.448Z,-22937.50
2019-06-07T02:45:46.061Z,-22936.61
2019-06-07T02:48:12.602Z,-22936.32
2019-06-07T02:50:39.153Z,-22935.13
2019-06-07T02:53:05.670Z,-22936.61
2019-06-07T02:55:44.744Z,-22937.06
2019-06-07T02:58:00.644Z,-22937.36
2019-06-07T03:01:07.012Z,-22936.91
2019-06-07T03:03:16.790Z,-22937.80
2019-06-07T03:05:44.852Z,-22937.95
2019-06-07T03:08:16.531Z,-22938.39
2019-06-07T03:10:46.185Z,-22940.77
2019-06-07T03:13:17.213Z,-22940.47
2019-06-07T03:15:49.945Z,-22940.32
2019-06-07T03:18:28.468Z,-22940.18
2019-06-07T03:21:05.437Z,-22940.18
2019-06-07T03:23:31.605Z,-22940.77
2019-06-07T03:25:57.713Z,-22940.47
2019-06-07T03:28:24.344Z,-22941.66
2019-06-07T03:31:01.387Z,-22942.55
2019-06-07T03:33:19.321Z,-22942.55
2019-06-07T03:35:45.857Z,-22941.36
2019-06-07T03:38:12.398Z,-22941.51
2019-06-07T03:40:40.191Z,-22941.36
2019-06-07T03:43:06.898Z,-22941.81
2019-06-07T03:45:36.036Z,-22941.81
2019-06-07T03:48:02.067Z,-22941.07
2019-06-07T03:50:31.955Z,-22939.29
2019-06-07T03:52:57.059Z,-22938.69
2019-06-07T03:55:23.622Z,-22938.54
2019-06-07T04:00:20.824Z,-22937.21
2019-06-07T04:02:47.333Z,-22938.69
2019-06-07T04:05:13.849Z,-22940.47
2019-06-07T04:07:44.435Z,-22940.77
2019-06-07T04:10:10.037Z,-22943.44
2019-06-07T04:12:41.172Z,-22947.01
2019-06-07T04:15:06.698Z,-22947.75
2019-06-07T04:17:34.680Z,-22949.08
2019-06-07T04:20:04.728Z,-22949.97
2019-06-07T04:22:32.109Z,-22951.30
2019-06-07T04:25:02.608Z,-22952.20
2019-06-07T04:27:30.538Z,-22953.98
2019-06-07T04:30:07.088Z,-22952.35
2019-06-07T04:32:25.648Z,-22953.24
2019-06-07T04:34:52.171Z,-22955.61
2019-06-07T04:37:19.207Z,-22956.64
2019-06-07T04:39:47.333Z,-22956.80
2019-06-07T04:42:16.582Z,-22955.31
2019-06-07T04:44:44.717Z,-22957.09
2019-06-07T04:47:13.150Z,-22958.57
2019-06-07T04:49:43.981Z,-22960.65
2019-06-07T04:52:11.258Z,-22962.87
2019-06-07T04:54:41.084Z,-22964.36
2019-06-07T04:57:06.229Z,-22965.99
2019-06-07T05:00:05.333Z,-22968.51
2019-06-07T05:02:01.219Z,-22970.43
2019-06-07T05:04:28.942Z,-22973.39
2019-06-07T05:06:56.193Z,-22976.21
2019-06-07T05:09:22.714Z,-22976.95
2019-06-07T05:11:49.250Z,-22979.91
2019-06-07T05:14:16.846Z,-22981.10
2019-06-07T05:16:44.554Z,-22983.02
2019-06-07T05:19:11.259Z,-22984.80
2019-06-07T05:21:54.272Z,-22986.13
2019-06-07T05:24:10.438Z,-22988.95
2019-06-07T05:26:37.727Z,-22993.39
2019-06-07T05:29:03.323Z,-22995.32
2019-06-07T05:31:31.075Z,-22997.39
2019-06-07T05:33:58.356Z,-22999.46
2019-06-07T05:36:24.885Z,-23001.54
2019-06-07T05:38:51.422Z,-23003.75
2019-06-07T05:41:18.055Z,-23004.50
2019-06-07T05:43:55.091Z,-23008.19
2019-06-07T05:46:13.036Z,-23010.11
2019-06-07T05:48:41.944Z,-23011.00
2019-06-07T05:51:08.581Z,-23012.63
2019-06-07T05:53:35.106Z,-23014.85
2019-06-07T05:56:01.634Z,-23017.81
2019-06-07T05:58:28.159Z,-23020.91
2019-06-07T06:00:54.689Z,-23026.83
2019-06-07T06:03:21.221Z,-23028.89
2019-06-07T06:05:54.488Z,-23031.11
2019-06-07T06:08:16.295Z,-23034.07
2019-06-07T06:10:46.856Z,-23035.40
2019-06-07T06:13:11.334Z,-23038.21
2019-06-07T06:15:50.146Z,-23042.49
2019-06-07T06:18:06.500Z,-23045.15
2019-06-07T06:20:47.710Z,-23047.07
2019-06-07T06:23:01.758Z,-23050.17
2019-06-07T06:25:32.360Z,-23053.72
2019-06-07T06:28:09.841Z,-23058.59
2019-06-07T06:30:25.370Z,-23059.03
2019-06-07T06:32:57.742Z,-23063.02
2019-06-07T06:35:20.334Z,-23066.56
2019-06-07T06:37:52.727Z,-23069.51
2019-06-07T06:40:16.014Z,-23074.53
2019-06-07T06:42:44.699Z,-23079.54
2019-06-07T06:45:12.077Z,-23084.26
2019-06-07T06:47:38.635Z,-23087.51
2019-06-07T06:50:09.075Z,-23089.13
2019-06-07T06:52:35.754Z,-23092.52
2019-06-07T06:55:05.688Z,-23096.20
2019-06-07T06:57:32.206Z,-23101.36
2019-06-07T06:59:58.730Z,-23103.87
2019-06-07T07:02:25.248Z,-23105.19
2019-06-07T07:04:53.827Z,-23112.70
2019-06-07T07:07:20.787Z,-23116.24
2019-06-07T07:09:52.317Z,-23116.24
2019-06-07T07:12:16.140Z,-23119.91
2019-06-07T07:14:45.571Z,-23120.21
2019-06-07T07:17:11.143Z,-23122.12
2019-06-07T07:19:37.745Z,-23127.87
2019-06-07T07:22:05.156Z,-23125.96
2019-06-07T07:24:31.692Z,-23129.63
2019-06-07T07:26:58.621Z,-23128.45
2019-06-07T07:29:25.363Z,-23136.70
2019-06-07T07:31:55.777Z,-23135.52
2019-06-07T07:34:33.352Z,-23144.64
2019-06-07T07:36:53.442Z,-23146.55
2019-06-07T07:39:17.368Z,-23161.69
2019-06-07T07:42:05.024Z,-23163.74
2019-06-07T07:44:12.486Z,-23164.92
2019-06-07T07:46:39.015Z,-23166.97
2019-06-07T07:49:05.546Z,-23172.26
2019-06-07T07:51:32.212Z,-23183.71
2019-06-07T07:54:10.293Z,-23174.61
2019-06-07T07:56:27.172Z,-23184.00
2019-06-07T07:59:00.065Z,-23186.64
2019-06-07T08:01:22.575Z,-23185.62
2019-06-07T08:03:50.670Z,-23182.68
2019-06-07T08:06:17.558Z,-23178.43
2019-06-07T08:08:44.091Z,-23186.06
2019-06-07T08:11:10.630Z,-23181.95
2019-06-07T08:13:37.386Z,-23183.27
2019-06-07T08:16:10.255Z,-23193.11
2019-06-07T08:18:32.677Z,-23190.17
2019-06-07T08:21:20.502Z,-23190.46
2019-06-07T08:23:27.635Z,-23190.61
2019-06-07T08:26:00.041Z,-23196.92
2019-06-07T08:28:22.597Z,-23207.47
2019-06-07T08:30:55.034Z,-23207.62
2019-06-07T08:33:25.853Z,-23198.68
2019-06-07T08:38:26.036Z,-23219.64
2019-06-07T08:40:42.914Z,-23224.91
2019-06-07T08:43:19.469Z,-23225.35
2019-06-07T08:45:37.879Z,-23225.79
2019-06-07T08:48:23.830Z,-23230.33
2019-06-07T08:50:32.873Z,-23233.84
2019-06-07T08:53:10.884Z,-23242.18
2019-06-07T08:55:27.928Z,-23235.60
2019-06-07T08:58:01.551Z,-23238.82
2019-06-07T09:00:45.676Z,-23233.11
2019-06-07T09:02:53.175Z,-23241.75
2019-06-07T09:05:20.485Z,-23236.04
2019-06-07T09:07:47.131Z,-23238.96
2019-06-07T09:10:16.163Z,-23237.50
2019-06-07T09:12:42.836Z,-23239.55
2019-06-07T09:15:21.262Z,-23242.04
2019-06-07T09:18:29.644Z,-23251.84
2019-06-07T09:20:35.214Z,-23269.09
2019-06-07T09:22:41.191Z,-23265.73
2019-06-07T09:25:20.116Z,-23277.57
2019-06-07T09:27:38.050Z,-23279.62
2019-06-07T09:30:16.446Z,-23281.52
2019-06-07T09:32:37.535Z,-23272.75
2019-06-07T09:35:12.394Z,-23274.50
2019-06-07T09:38:04.289Z,-23277.13
2019-06-07T09:40:19.603Z,-23284.14
2019-06-07T09:42:33.324Z,-23280.34
2019-06-07T09:45:01.202Z,-23287.50
2019-06-07T09:47:32.602Z,-23299.18
2019-06-07T09:50:02.361Z,-23304.72
2019-06-07T09:52:25.236Z,-23290.27
2019-06-07T09:55:22.005Z,-23285.31
2019-06-07T09:57:20.263Z,-23292.61
2019-06-07T09:59:46.961Z,-23287.94
2019-06-07T10:02:13.958Z,-23300.93
2019-06-07T10:04:40.628Z,-23313.91
2019-06-07T10:07:16.889Z,-23303.41
2019-06-07T10:10:09.864Z,-23303.41
2019-06-07T10:12:04.684Z,-23310.70
2019-06-07T10:14:31.536Z,-23311.86
2019-06-07T10:16:58.809Z,-23307.49
2019-06-07T10:19:25.477Z,-23316.54
2019-06-07T10:21:51.997Z,-23322.07
2019-06-07T10:24:18.512Z,-23325.86
2019-06-07T10:26:45.097Z,-23323.24
2019-06-07T10:29:11.636Z,-23322.95
2019-06-07T10:31:38.208Z,-23332.42
2019-06-07T10:34:04.729Z,-23338.09
2019-06-07T10:36:31.274Z,-23345.09
2019-06-07T10:38:57.796Z,-23331.25
2019-06-07T10:41:24.402Z,-23334.75
2019-06-07T10:43:50.927Z,-23333.73
2019-06-07T10:46:17.548Z,-23336.35
2019-06-07T10:48:44.084Z,-23337.52
2019-06-07T10:51:12.419Z,-23334.89
2019-06-07T10:53:39.126Z,-23339.11
2019-06-07T10:56:06.937Z,-23340.14
2019-06-07T10:58:33.682Z,-23348.87
2019-06-07T11:01:00.242Z,-23346.98
2019-06-07T11:03:26.771Z,-23347.27
2019-06-07T11:05:53.297Z,-23344.50
2019-06-07T11:08:19.826Z,-23353.67
2019-06-07T11:10:46.352Z,-23353.53
2019-06-07T11:13:12.885Z,-23354.40
2019-06-07T11:15:39.439Z,-23347.85
2019-06-07T11:18:06.255Z,-23345.96
2019-06-07T11:20:32.902Z,-23352.36
2019-06-07T11:22:59.455Z,-23350.61
2019-06-07T11:25:25.981Z,-23364.15
2019-06-07T11:27:52.570Z,-23380.57
2019-06-07T11:30:19.325Z,-23386.38
2019-06-07T11:32:45.878Z,-23377.95
2019-06-07T11:35:13.968Z,-23367.78
2019-06-07T11:37:41.651Z,-23366.18
2019-06-07T11:40:27.733Z,-23371.27
2019-06-07T11:42:38.925Z,-23375.05
2019-06-07T11:45:06.262Z,-23385.80
2019-06-07T11:47:32.798Z,-23379.99
2019-06-07T11:49:59.317Z,-23385.80
2019-06-07T11:52:25.910Z,-23381.73
2019-06-07T11:54:52.430Z,-23380.71
2019-06-07T11:57:18.967Z,-23391.61
2019-06-07T11:59:45.507Z,-23397.41
2019-06-07T12:02:13.302Z,-23396.40
2019-06-07T12:04:40.141Z,-23385.07
2019-06-07T12:07:10.200Z,-23394.22
2019-06-07T12:09:35.125Z,-23386.09
2019-06-07T12:12:01.642Z,-23397.41
2019-06-07T12:14:28.222Z,-23395.38
2019-06-07T12:16:54.876Z,-23392.48
2019-06-07T12:19:22.495Z,-23401.77
2019-06-07T12:21:49.019Z,-23409.32
2019-06-07T12:24:16.237Z,-23411.49
2019-06-07T12:26:42.883Z,-23412.94
2019-06-07T12:29:10.660Z,-23419.32
2019-06-07T12:31:37.344Z,-23418.59
2019-06-07T12:34:03.868Z,-23417.72
2019-06-07T12:36:30.459Z,-23412.65
2019-06-07T12:38:57.008Z,-23412.21
2019-06-07T12:41:23.540Z,-23416.71
2019-06-07T12:43:50.117Z,-23415.41
2019-06-07T12:46:21.147Z,-23408.15
2019-06-07T12:48:45.075Z,-23404.96
2019-06-07T12:51:13.054Z,-23414.10
2019-06-07T12:53:39.774Z,-23429.61
2019-06-07T12:56:06.297Z,-23420.19
2019-06-07T12:58:37.255Z,-23416.85
2019-06-07T13:01:01.970Z,-23422.07
2019-06-07T13:03:28.506Z,-23417.43
2019-06-07T13:05:55.068Z,-23415.11
2019-06-07T13:08:22.108Z,-23427.15
2019-06-07T13:10:48.943Z,-23432.65
2019-06-07T13:13:15.825Z,-23429.18
2019-06-07T13:15:42.471Z,-23426.14
2019-06-07T13:18:09.052Z,-23412.36
2019-06-07T13:20:36.026Z,-23404.52
2019-06-07T13:23:02.955Z,-23407.43
2019-06-07T13:25:44.087Z,-23417.87
2019-06-07T13:27:57.916Z,-23424.97
2019-06-07T13:30:25.551Z,-23419.75
2019-06-07T13:32:53.267Z,-23412.36
2019-06-07T13:35:21.931Z,-22734.58
2019-06-07T13:37:48.397Z,-23073.26
2019-06-07T13:40:16.410Z,-22741.70
2019-06-07T13:42:43.161Z,-23246.70
2019-06-07T13:45:12.088Z,-22570.02
2019-06-07T13:47:39.161Z,-20888.49
2019-06-07T13:50:07.393Z,-21044.41
2019-06-07T13:52:34.006Z,-20368.55
2019-06-07T13:55:02.365Z,-19514.66
2019-06-07T13:57:29.229Z,-12930.88
2019-06-07T13:59:56.428Z,-9207.27
2019-06-07T14:02:24.029Z,-4124.80
2019-06-07T14:04:51.512Z,-7511.79
2019-06-07T14:07:19.310Z,-3447.81
2019-06-07T14:09:46.057Z,1458.50
2019-06-07T14:12:12.590Z,21754.23
2019-06-07T14:14:39.121Z,31116.48
2019-06-07T14:17:05.650Z,56034.78
2019-06-07T14:19:32.259Z,64036.76
2019-06-07T14:21:58.816Z,61747.47
2019-06-07T14:24:25.352Z,64058.73
2019-06-07T14:27:06.842Z,59873.81
2019-06-07T14:29:38.084Z,54715.67
2019-06-07T14:32:09.873Z,34865.14
2019-06-07T14:34:36.608Z,9923.41
2019-06-07T14:37:04.743Z,-19653.09
2019-06-07T14:39:31.528Z,-23344.50
2019-06-07T14:42:08.556Z,-23336.06
2019-06-07T14:44:27.695Z,-23327.91
2019-06-07T14:46:54.363Z,-23324.84
2019-06-07T14:49:20.929Z,-23325.28
2019-06-07T14:51:47.643Z,-23329.07
2019-06-07T14:54:14.190Z,-23332.85
2019-06-07T14:56:40.720Z,-23333.15
2019-06-07T14:59:07.248Z,-23333.00
2019-06-07T15:01:35.475Z,-23331.55
2019-06-07T15:04:02.863Z,-23329.07
2019-06-07T15:06:30.593Z,-23326.45
2019-06-07T15:08:57.372Z,-23321.49
2019-06-07T15:11:23.916Z,-23314.79
2019-06-07T15:13:50.957Z,-23307.05
2019-06-07T15:16:17.527Z,-23306.33
2019-06-07T15:18:44.202Z,-23307.64
2019-06-07T15:21:10.784Z,-23313.04
2019-06-07T15:23:37.300Z,-23314.79
2019-06-07T15:26:03.897Z,-23297.57
2019-06-07T15:28:32.078Z,-23291.15
2019-06-07T15:30:58.914Z,-23290.13
2019-06-07T15:33:25.461Z,-23274.06
2019-06-07T15:35:52.000Z,-23271.29
2019-06-07T15:38:18.517Z,-23272.16
2019-06-07T15:40:45.057Z,-23275.82
2019-06-07T15:43:11.631Z,-23290.86
2019-06-07T15:45:38.171Z,-23298.45
2019-06-07T15:48:04.723Z,-23294.07
2019-06-07T15:50:32.182Z,-23286.04
2019-06-07T15:52:58.985Z,-23283.12
2019-06-07T15:55:25.515Z,-23283.85
2019-06-07T15:57:53.091Z,-23291.44
2019-06-07T16:00:20.202Z,-23303.85
2019-06-07T16:02:46.848Z,-23309.54
2019-06-07T16:05:14.235Z,-23310.70
2019-06-07T16:07:42.539Z,-23314.49
2019-06-07T16:10:09.921Z,-23306.62
2019-06-07T16:12:36.793Z,-23309.24
2019-06-07T16:15:06.195Z,-23316.54
2019-06-07T16:17:33.037Z,-23306.33
2019-06-07T16:19:59.569Z,-23298.30
2019-06-07T16:22:26.101Z,-23299.04
2019-06-07T16:24:52.634Z,-23296.41
2019-06-07T16:27:19.250Z,-23287.94
2019-06-07T16:29:45.799Z,-23277.13
2019-06-07T16:32:12.462Z,-23274.50
2019-06-07T16:34:39.908Z,-23275.96
2019-06-07T16:37:07.420Z,-23281.95
2019-06-07T16:39:34.007Z,-23284.58
2019-06-07T16:42:00.593Z,-23279.18
2019-06-07T16:44:27.124Z,-23270.41
2019-06-07T16:46:53.659Z,-23268.22
2019-06-07T16:49:20.185Z,-23245.27
2019-06-07T16:51:46.774Z,-23221.84
2019-06-07T16:54:13.293Z,-23188.71
2019-06-07T16:56:45.372Z,-23180.48
2019-06-07T16:59:08.332Z,-23171.82
2019-06-07T17:01:34.884Z,-23168.29
2019-06-07T17:04:01.438Z,-23164.48
2019-06-07T17:06:27.954Z,-23159.63
2019-06-07T17:08:54.617Z,-23148.16
2019-06-07T17:11:21.128Z,-23139.93
2019-06-07T17:13:48.559Z,-23133.16
2019-06-07T17:16:15.194Z,-23129.04
2019-06-07T17:18:42.938Z,-23123.60
2019-06-07T17:21:09.707Z,-23117.70
2019-06-07T17:23:36.462Z,-23120.36
2019-06-07T17:26:03.141Z,-23116.97
2019-06-07T17:28:29.776Z,-23112.85
2019-06-07T17:30:56.451Z,-23107.25
2019-06-07T17:33:23.042Z,-23104.90
2019-06-07T17:35:50.642Z,-23104.01
2019-06-07T17:38:17.469Z,-23100.92
2019-06-07T17:40:44.983Z,-23098.27
2019-06-07T17:43:11.709Z,-23099.89
2019-06-07T17:45:38.237Z,-23095.77
2019-06-07T17:48:05.986Z,-23092.81
2019-06-07T17:50:33.468Z,-23087.80
2019-06-07T17:53:00.638Z,-23087.80
2019-06-07T17:55:28.282Z,-23086.03
2019-06-07T17:57:56.768Z,-23083.67
2019-06-07T18:00:29.506Z,-23082.49
2019-06-07T18:02:58.190Z,-23082.79
2019-06-07T18:05:24.828Z,-23082.49
2019-06-07T18:07:51.813Z,-23081.31
2019-06-07T18:10:38.118Z,-23081.02
2019-06-07T18:13:06.407Z,-23081.31
2019-06-07T18:15:39.664Z,-23079.84
2019-06-07T18:18:06.255Z,-23079.54
2019-06-07T18:20:33.686Z,-23077.04
2019-06-07T18:23:00.485Z,-23076.59
2019-06-07T18:25:28.763Z,-23075.71
2019-06-07T18:27:58.907Z,-23076.00
2019-06-07T18:30:26.304Z,-23075.71
2019-06-07T18:32:53.036Z,-23074.23
2019-06-07T18:35:19.799Z,-23072.46
2019-06-07T18:37:51.152Z,-23070.69
2019-06-07T18:40:19.741Z,-23067.00
2019-06-07T18:42:47.109Z,-23065.97
2019-06-07T18:45:14.128Z,-23063.91
2019-06-07T18:47:43.847Z,-23061.54
2019-06-07T18:50:14.701Z,-23061.25
2019-06-07T18:52:43.711Z,-23060.22
2019-06-07T18:55:10.613Z,-23057.41
2019-06-07T18:57:38.752Z,-23053.86
2019-06-07T19:00:13.387Z,-23049.73
2019-06-07T19:02:40.766Z,-23050.32
2019-06-07T19:05:10.768Z,-23046.48
2019-06-07T19:07:42.176Z,-23045.74
2019-06-07T19:13:01.071Z,-23043.52
2019-06-07T19:15:28.597Z,-23040.72
2019-06-07T19:17:58.021Z,-23038.36
2019-06-07T19:20:26.078Z,-23036.58
2019-06-07T19:22:54.169Z,-23033.48
2019-06-07T19:25:22.497Z,-23028.60
2019-06-07T19:27:49.018Z,-23029.19
2019-06-07T19:30:18.540Z,-23027.57
2019-06-07T19:32:45.054Z,-23027.27
2019-06-07T19:35:12.920Z,-23029.05
2019-06-07T19:37:39.460Z,-23032.29
2019-06-07T19:40:06.874Z,-23037.32
2019-06-07T19:42:33.557Z,-23037.61
2019-06-07T19:45:24.624Z,-23037.91
2019-06-07T19:47:28.538Z,-23038.65
2019-06-07T19:49:55.079Z,-23044.71
2019-06-07T19:52:21.599Z,-23044.41
2019-06-07T19:54:48.185Z,-23040.13
2019-06-07T19:57:14.718Z,-23032.59
2019-06-07T19:59:41.256Z,-23020.18
2019-06-07T20:02:07.773Z,-23014.85
2019-06-07T20:04:34.308Z,-23018.25
2019-06-07T20:07:00.828Z,-23018.84
2019-06-07T20:09:30.481Z,-23023.43
2019-06-07T20:11:56.462Z,-23025.20
2019-06-07T20:14:23.102Z,-23030.23
2019-06-07T20:16:49.626Z,-23032.89
2019-06-07T20:19:16.165Z,-23038.50
2019-06-07T20:21:42.692Z,-23043.82
2019-06-07T20:24:24.737Z,-23047.66
2019-06-07T20:26:37.934Z,-23049.88
2019-06-07T20:29:05.713Z,-23049.73
2019-06-07T20:31:32.328Z,-23047.66
2019-06-07T20:34:04.348Z,-23042.64
2019-06-07T20:36:32.133Z,-23035.40
2019-06-07T20:39:00.073Z,-23032.89
2019-06-07T20:41:26.910Z,-23032.59
2019-06-07T20:43:53.460Z,-23036.43
2019-06-07T20:46:20.002Z,-23038.06
2019-06-07T20:48:46.602Z,-23041.90
2019-06-07T20:51:13.129Z,-23044.85
2019-06-07T20:53:39.793Z,-23050.32
2019-06-07T20:56:06.799Z,-23045.30
2019-06-07T20:58:33.469Z,-23036.73
2019-06-07T21:01:00.612Z,-23032.74
2019-06-07T21:03:27.207Z,-23034.37
2019-06-07T21:05:53.728Z,-23035.84
2019-06-07T21:08:20.258Z,-23033.33
2019-06-07T21:10:46.791Z,-23033.77
2019-06-07T21:13:13.310Z,-23034.07
2019-06-07T21:15:48.237Z,-23039.54
2019-06-07T21:18:16.894Z,-23040.27
2019-06-07T21:20:36.803Z,-23045.45
2019-06-07T21:23:04.695Z,-23049.88
2019-06-07T21:25:31.437Z,-23049.43
2019-06-07T21:27:57.956Z,-23049.73
2019-06-07T21:30:24.494Z,-23048.85
2019-06-07T21:32:52.110Z,-23048.55
2019-06-07T21:35:18.844Z,-23047.07
2019-06-07T21:37:45.387Z,-23045.30
2019-06-07T21:40:12.305Z,-23043.67
2019-06-07T21:42:38.885Z,-23039.83
2019-06-07T21:45:07.924Z,-23035.70
2019-06-07T21:47:34.771Z,-23029.05
2019-06-07T21:50:02.590Z,-23024.31
2019-06-07T21:52:29.356Z,-23016.77
2019-06-07T21:54:55.918Z,-23016.04
2019-06-07T21:57:22.516Z,-23014.70
2019-06-07T21:59:49.042Z,-23011.30
2019-06-07T22:02:17.673Z,-23010.86
2019-06-07T22:04:44.229Z,-23009.82
2019-06-07T22:07:11.548Z,-23009.82
2019-06-07T22:09:38.125Z,-23009.67
2019-06-07T22:12:05.949Z,-23012.19
2019-06-07T22:14:32.602Z,-23010.71
2019-06-07T22:17:01.182Z,-23008.64
2019-06-07T22:19:27.714Z,-23008.05
2019-06-07T22:22:02.614Z,-23006.86
2019-06-07T22:24:22.682Z,-23004.64
2019-06-07T22:26:49.195Z,-23004.50
2019-06-07T22:29:15.726Z,-23005.09
2019-06-07T22:31:42.261Z,-23004.50
2019-06-07T22:34:08.860Z,-23002.43
2019-06-07T22:36:35.438Z,-23003.46
2019-06-07T22:39:02.168Z,-23002.28
2019-06-07T22:41:28.700Z,-23003.46
2019-06-07T22:43:55.231Z,-23000.35
2019-06-07T22:46:36.510Z,-23001.24
2019-06-07T22:48:50.189Z,-23001.98
2019-06-07T22:51:18.303Z,-23000.80
2019-06-07T22:53:44.949Z,-22999.75
2019-06-07T22:56:16.287Z,-22999.16
2019-06-07T22:58:42.811Z,-22998.87
2019-06-07T23:01:10.366Z,-23000.35
2019-06-07T23:03:36.973Z,-23000.94
2019-06-07T23:06:03.595Z,-23000.94
2019-06-07T23:08:30.132Z,-23003.61
2019-06-07T23:10:56.735Z,-23002.57
2019-06-07T23:13:23.262Z,-23003.61
2019-06-07T23:15:49.795Z,-23003.31
2019-06-07T23:18:17.584Z,-23000.65
2019-06-07T23:20:44.246Z,-23001.54
2019-06-07T23:23:10.773Z,-22999.75
2019-06-07T23:25:37.305Z,-23000.65
2019-06-07T23:28:03.828Z,-23001.39
2019-06-07T23:30:30.395Z,-23001.68
2019-06-07T23:32:56.920Z,-23000.65
2019-06-07T23:35:23.449Z,-23000.80
2019-06-07T23:37:49.985Z,-23000.65
2019-06-07T23:40:17.359Z,-23000.94
2019-06-07T23:42:44.133Z,-23001.24
2019-06-07T23:45:12.012Z,-23000.35
2019-06-07T23:47:40.509Z,-22998.87
2019-06-07T23:50:08.031Z,-22997.68
2019-06-07T23:52:34.570Z,-22998.87
2019-06-07T23:55:01.206Z,-22997.98
2019-06-07T23:57:27.755Z,-22998.72
2019-06-07T23:59:54.284Z,-23000.65
